Time;durP1;ratioP1;P1;durP2;ratioP2;P2;SDS_P1;SDS_P2;PMS_P1;PMS_P2;Temp;Humidity;BMP_temperature;BMP_pressure;BME280_temperature;BME280_humidity;BME280_pressure;Samples;Min_cycle;Max_cycle;Signal;HPM_P1;HPM_P2
2022/07/25 00:01:41;;;;;;;5.80;3.22;;;24.40;96.30;;;;;;5125806;27;20036;-73
2022/07/25 00:04:07;;;;;;;6.68;3.20;;;24.40;96.30;;;;;;5121984;27;20593;-73
2022/07/25 00:06:34;;;;;;;5.38;3.33;;;24.40;96.30;;;;;;5124661;27;20079;-73
2022/07/25 00:09:00;;;;;;;4.80;2.92;;;24.30;96.00;;;;;;5122430;27;20477;-74
2022/07/25 00:11:26;;;;;;;3.97;3.17;;;24.30;95.80;;;;;;5126188;27;20036;-73
2022/07/25 00:13:52;;;;;;;6.63;2.78;;;24.20;95.60;;;;;;5123251;27;20041;-73
2022/07/25 00:16:18;;;;;;;4.47;2.40;;;24.20;95.50;;;;;;5127049;27;20596;-73
2022/07/25 00:18:43;;;;;;;3.63;2.90;;;24.10;95.20;;;;;;5127702;27;20517;-73
2022/07/25 00:21:10;;;;;;;6.35;3.45;;;24.00;94.90;;;;;;5127604;27;20039;-73
2022/07/25 00:23:35;;;;;;;4.53;2.58;;;24.00;94.90;;;;;;5128707;27;20156;-73
2022/07/25 00:26:01;;;;;;;6.10;2.67;;;23.90;94.80;;;;;;5125830;27;20234;-73
2022/07/25 00:28:27;;;;;;;4.78;2.72;;;23.90;94.80;;;;;;5126739;27;20039;-73
2022/07/25 00:30:53;;;;;;;5.20;3.00;;;23.80;94.70;;;;;;5127831;27;20885;-73
2022/07/25 00:33:19;;;;;;;4.95;2.55;;;23.80;94.60;;;;;;5124039;27;20038;-73
2022/07/25 00:35:45;;;;;;;5.20;1.88;;;23.80;94.70;;;;;;5127861;27;20050;-73
2022/07/25 00:38:10;;;;;;;3.42;2.10;;;23.80;94.60;;;;;;5128550;27;20078;-73
2022/07/25 00:40:36;;;;;;;5.25;2.10;;;23.80;94.50;;;;;;5126202;27;20043;-73
2022/07/25 00:43:02;;;;;;;2.85;2.00;;;23.70;94.50;;;;;;5126186;27;20589;-73
2022/07/25 00:45:28;;;;;;;3.85;2.15;;;23.70;94.40;;;;;;5127732;27;20484;-73
2022/07/25 00:47:53;;;;;;;3.38;2.50;;;23.60;94.40;;;;;;5127286;27;20039;-74
2022/07/25 00:50:19;;;;;;;4.00;2.10;;;23.60;94.30;;;;;;5126006;27;20377;-73
2022/07/25 00:52:45;;;;;;;3.10;1.98;;;23.60;94.30;;;;;;5128814;27;20520;-73
2022/07/25 00:55:12;;;;;;;3.55;2.30;;;23.50;94.20;;;;;;5124418;27;20826;-73
2022/07/25 00:57:38;;;;;;;2.95;1.67;;;23.50;94.30;;;;;;5125826;27;20077;-73
2022/07/25 01:00:09;;;;;;;3.97;2.55;;;23.50;94.30;;;;;;5128111;27;20044;-73
2022/07/25 01:02:35;;;;;;;;;;;23.40;94.30;;;;;;5128419;27;20031;-73
2022/07/25 01:05:04;;;;;;;2.45;1.70;;;23.50;94.30;;;;;;5108264;27;19930;-73
2022/07/25 01:07:31;;;;;;;3.35;1.83;;;23.40;94.20;;;;;;5126657;27;20042;-73
2022/07/25 01:09:58;;;;;;;4.45;1.88;;;23.30;94.10;;;;;;5126198;27;20585;-73
2022/07/25 01:12:24;;;;;;;2.70;1.52;;;23.30;94.10;;;;;;5126191;27;20821;-73
2022/07/25 01:14:50;;;;;;;3.90;1.80;;;23.30;94.10;;;;;;5124219;27;21199;-73
2022/07/25 01:17:16;;;;;;;5.43;1.80;;;23.30;94.20;;;;;;5123729;27;20031;-73
2022/07/25 01:19:41;;;;;;;3.03;1.80;;;23.30;94.10;;;;;;5126644;27;20059;-73
2022/07/25 01:22:07;;;;;;;2.40;1.65;;;23.30;94.00;;;;;;5123615;27;20047;-73
2022/07/25 01:24:34;;;;;;;6.75;2.03;;;23.30;94.00;;;;;;5110625;27;20054;-73
2022/07/25 01:27:01;;;;;;;4.78;2.15;;;23.20;94.00;;;;;;5124475;27;20460;-73
2022/07/25 01:29:27;;;;;;;3.03;1.85;;;23.20;94.10;;;;;;5126256;27;21800;-73
2022/07/25 01:31:53;;;;;;;2.60;1.70;;;23.30;94.10;;;;;;5127670;27;20625;-73
2022/07/25 01:34:19;;;;;;;3.08;1.80;;;23.30;94.10;;;;;;5125395;27;20051;-73
2022/07/25 01:36:44;;;;;;;2.63;1.63;;;23.30;94.00;;;;;;5126957;27;20525;-73
2022/07/25 01:39:10;;;;;;;4.45;2.15;;;23.20;94.00;;;;;;5124776;27;20118;-73
2022/07/25 01:41:36;;;;;;;3.65;1.77;;;23.20;94.00;;;;;;5127780;27;20821;-73
2022/07/25 01:44:02;;;;;;;4.20;1.77;;;23.20;94.00;;;;;;5124065;27;20078;-73
2022/07/25 01:46:28;;;;;;;2.35;1.67;;;23.10;93.90;;;;;;5126023;27;20039;-73
2022/07/25 01:48:54;;;;;;;5.80;1.85;;;23.10;94.00;;;;;;5125648;27;20043;-73
2022/07/25 01:51:20;;;;;;;4.30;1.73;;;23.00;94.00;;;;;;5125169;27;20814;-73
2022/07/25 01:53:46;;;;;;;1.95;1.42;;;23.00;94.10;;;;;;5126217;27;20046;-73
2022/07/25 01:56:12;;;;;;;4.30;1.63;;;23.00;94.40;;;;;;5125761;27;20054;-73
2022/07/25 01:58:37;;;;;;;2.13;1.60;;;23.00;94.10;;;;;;5125476;27;20039;-73
2022/07/25 02:01:03;;;;;;;2.55;1.58;;;23.00;94.10;;;;;;5126579;27;20109;-73
2022/07/25 02:03:29;;;;;;;6.72;1.90;;;23.00;94.10;;;;;;5126820;27;20544;-73
2022/07/25 02:05:56;;;;;;;1.90;1.30;;;22.90;94.10;;;;;;5125762;27;20088;-73
2022/07/25 02:08:22;;;;;;;3.88;2.28;;;22.90;94.10;;;;;;5124800;27;20520;-73
2022/07/25 02:10:48;;;;;;;5.88;1.67;;;22.80;94.10;;;;;;5126466;27;20047;-73
2022/07/25 02:13:14;;;;;;;2.35;1.65;;;22.80;94.10;;;;;;5108196;27;20537;-73
2022/07/25 02:15:40;;;;;;;2.28;1.40;;;22.80;94.10;;;;;;5124732;27;20040;-73
2022/07/25 02:18:05;;;;;;;1.27;1.13;;;22.80;94.10;;;;;;5125028;27;20533;-73
2022/07/25 02:20:31;;;;;;;3.70;1.45;;;22.80;94.10;;;;;;5124475;27;20075;-73
2022/07/25 02:22:57;;;;;;;3.63;2.35;;;22.80;94.10;;;;;;5124895;27;20038;-73
2022/07/25 02:25:22;;;;;;;1.63;1.20;;;22.80;94.10;;;;;;5122034;27;20497;-73
2022/07/25 02:27:48;;;;;;;2.00;1.38;;;22.80;94.00;;;;;;5127413;27;20134;-73
2022/07/25 02:30:14;;;;;;;3.03;1.77;;;22.70;94.10;;;;;;5123342;27;20040;-73
2022/07/25 02:32:40;;;;;;;3.95;1.75;;;22.70;94.10;;;;;;5125872;27;20051;-73
2022/07/25 02:35:06;;;;;;;2.65;1.38;;;22.70;94.10;;;;;;5124663;27;20624;-73
2022/07/25 02:37:32;;;;;;;3.53;1.58;;;22.70;94.10;;;;;;5140907;27;20039;-73
2022/07/25 02:39:58;;;;;;;3.40;1.40;;;22.70;94.10;;;;;;5126316;27;20043;-73
2022/07/25 02:42:24;;;;;;;1.75;1.20;;;22.70;94.10;;;;;;5124522;27;20432;-73
2022/07/25 02:44:50;;;;;;;2.85;1.60;;;22.70;94.00;;;;;;5125118;27;20520;-73
2022/07/25 02:47:15;;;;;;;1.65;1.25;;;22.70;94.10;;;;;;5124907;27;20050;-73
2022/07/25 02:49:41;;;;;;;3.42;1.42;;;22.70;94.10;;;;;;5124842;27;20115;-73
2022/07/25 02:52:07;;;;;;;2.58;1.55;;;22.60;94.10;;;;;;5125592;27;21292;-73
2022/07/25 02:54:32;;;;;;;2.08;1.30;;;22.60;94.10;;;;;;5126896;27;20122;-73
2022/07/25 02:56:58;;;;;;;2.13;1.35;;;22.60;94.10;;;;;;5121753;27;20043;-73
2022/07/25 02:59:24;;;;;;;2.88;1.50;;;22.60;94.10;;;;;;5123672;27;20151;-73
2022/07/25 03:01:50;;;;;;;2.10;1.35;;;22.60;94.10;;;;;;5125920;27;20044;-73
2022/07/25 03:04:15;;;;;;;2.30;1.38;;;22.60;94.20;;;;;;5124234;27;20532;-72
2022/07/25 03:06:41;;;;;;;2.22;1.30;;;22.50;94.10;;;;;;5124415;27;20042;-73
2022/07/25 03:09:07;;;;;;;4.53;1.55;;;22.50;94.10;;;;;;5124422;27;20043;-73
2022/07/25 03:11:33;;;;;;;5.05;1.80;;;22.40;94.20;;;;;;5125393;27;20047;-73
2022/07/25 03:13:59;;;;;;;2.40;1.70;;;22.40;94.30;;;;;;5124309;27;20608;-73
2022/07/25 03:16:25;;;;;;;2.55;1.45;;;22.40;94.30;;;;;;5125582;27;20532;-73
2022/07/25 03:18:51;;;;;;;4.28;1.52;;;22.40;94.30;;;;;;5141947;27;20096;-73
2022/07/25 03:21:17;;;;;;;2.40;1.45;;;22.40;94.40;;;;;;5121274;27;20126;-73
2022/07/25 03:23:43;;;;;;;3.00;1.55;;;22.40;94.40;;;;;;5125339;27;20501;-73
2022/07/25 03:26:08;;;;;;;3.00;1.75;;;22.40;94.40;;;;;;5123035;27;20106;-73
2022/07/25 03:28:34;;;;;;;2.85;1.50;;;22.40;94.40;;;;;;5126485;27;20488;-73
2022/07/25 03:31:00;;;;;;;2.83;1.40;;;22.30;94.40;;;;;;5124641;27;20044;-73
2022/07/25 03:33:26;;;;;;;2.35;1.42;;;22.30;94.40;;;;;;5125522;27;21587;-73
2022/07/25 03:35:52;;;;;;;3.45;2.05;;;22.30;94.40;;;;;;5126049;27;20093;-73
2022/07/25 03:38:17;;;;;;;2.28;1.50;;;22.20;94.40;;;;;;5121495;27;20059;-73
2022/07/25 03:40:43;;;;;;;3.85;1.45;;;22.20;94.50;;;;;;5125368;27;20169;-73
2022/07/25 03:43:09;;;;;;;4.75;1.60;;;22.20;94.50;;;;;;5124482;27;20066;-73
2022/07/25 03:45:35;;;;;;;2.10;1.33;;;22.20;94.60;;;;;;5125480;27;20120;-73
2022/07/25 03:48:01;;;;;;;3.28;1.38;;;22.20;94.60;;;;;;5124006;27;20066;-73
2022/07/25 03:50:27;;;;;;;2.35;1.40;;;22.10;94.70;;;;;;5124796;27;20860;-73
2022/07/25 03:52:52;;;;;;;2.88;1.58;;;22.10;94.70;;;;;;5128110;27;20635;-73
2022/07/25 03:55:18;;;;;;;2.60;1.55;;;22.00;94.70;;;;;;5126769;27;20082;-73
2022/07/25 03:57:44;;;;;;;3.40;1.60;;;22.00;94.80;;;;;;5126801;27;20043;-73
2022/07/25 04:00:11;;;;;;;2.33;1.52;;;22.00;94.90;;;;;;5127016;27;20044;-73
2022/07/25 04:02:37;;;;;;;2.28;1.42;;;22.00;94.90;;;;;;5129276;27;20131;-73
2022/07/25 04:05:04;;;;;;;2.40;1.42;;;22.00;94.90;;;;;;5125567;27;20054;-73
2022/07/25 04:07:30;;;;;;;3.45;1.50;;;22.00;95.00;;;;;;5127819;27;20049;-73
2022/07/25 04:09:56;;;;;;;2.20;1.23;;;22.00;95.00;;;;;;5129264;27;20062;-73
2022/07/25 04:12:22;;;;;;;2.45;1.55;;;21.90;95.00;;;;;;5126248;27;20032;-73
2022/07/25 04:14:48;;;;;;;3.85;1.70;;;21.90;95.00;;;;;;5126792;27;20039;-73
2022/07/25 04:17:13;;;;;;;3.65;1.27;;;21.90;94.90;;;;;;5127989;27;20128;-73
2022/07/25 04:19:39;;;;;;;3.38;1.50;;;21.90;95.20;;;;;;5128465;27;20183;-73
2022/07/25 04:22:05;;;;;;;2.22;1.50;;;21.80;95.20;;;;;;5127896;27;20504;-73
2022/07/25 04:24:31;;;;;;;3.35;1.38;;;21.80;95.20;;;;;;5128378;27;20035;-73
2022/07/25 04:26:56;;;;;;;2.42;1.65;;;21.80;95.30;;;;;;5129057;27;20035;-73
2022/07/25 04:29:22;;;;;;;3.83;1.67;;;21.80;95.30;;;;;;5127082;27;20150;-73
2022/07/25 04:31:48;;;;;;;2.15;1.40;;;21.80;95.40;;;;;;5128328;27;20119;-73
2022/07/25 04:34:14;;;;;;;2.20;1.52;;;21.70;95.40;;;;;;5128567;27;20031;-73
2022/07/25 04:36:40;;;;;;;1.77;1.25;;;21.70;95.50;;;;;;5129812;27;20867;-73
2022/07/25 04:39:05;;;;;;;3.17;1.50;;;21.70;95.60;;;;;;5127068;27;20134;-73
2022/07/25 04:41:31;;;;;;;3.22;1.70;;;21.70;95.70;;;;;;5125343;27;20290;-73
2022/07/25 04:43:57;;;;;;;2.75;1.98;;;21.70;95.70;;;;;;5126783;27;20146;-73
2022/07/25 04:46:23;;;;;;;3.13;1.83;;;21.70;95.70;;;;;;5125582;27;20067;-73
2022/07/25 04:48:49;;;;;;;2.40;1.40;;;21.70;95.70;;;;;;5127358;27;20043;-73
2022/07/25 04:51:16;;;;;;;3.20;1.85;;;21.70;95.80;;;;;;5127830;27;20040;-73
2022/07/25 04:53:42;;;;;;;3.28;1.67;;;21.70;95.80;;;;;;5127466;27;20109;-73
2022/07/25 04:56:08;;;;;;;2.45;1.60;;;21.70;95.80;;;;;;5127587;27;20065;-73
2022/07/25 04:58:34;;;;;;;4.18;1.70;;;21.70;95.80;;;;;;5125211;27;20042;-73
2022/07/25 05:00:59;;;;;;;2.95;1.90;;;21.70;95.90;;;;;;5126181;27;20050;-73
2022/07/25 05:03:25;;;;;;;3.38;1.80;;;21.70;95.90;;;;;;5127154;27;20042;-73
2022/07/25 05:05:51;;;;;;;3.10;1.65;;;21.70;95.90;;;;;;5126469;27;20148;-73
2022/07/25 05:08:16;;;;;;;8.80;2.00;;;21.70;96.00;;;;;;5127768;27;20431;-73
2022/07/25 05:10:42;;;;;;;4.28;1.70;;;21.70;96.10;;;;;;5126069;27;20047;-73
2022/07/25 05:13:08;;;;;;;2.53;1.67;;;21.70;96.10;;;;;;5125399;27;20061;-73
2022/07/25 05:15:34;;;;;;;2.45;1.65;;;21.70;96.20;;;;;;5126971;27;20126;-73
2022/07/25 05:18:00;;;;;;;2.40;1.27;;;21.70;96.30;;;;;;5127457;27;20043;-73
2022/07/25 05:20:26;;;;;;;3.13;1.85;;;21.70;96.30;;;;;;5125628;27;20460;-73
2022/07/25 05:22:52;;;;;;;4.75;2.17;;;21.80;96.30;;;;;;5124756;27;20598;-73
2022/07/25 05:25:18;;;;;;;8.15;1.88;;;21.90;96.40;;;;;;5126874;27;20280;-73
2022/07/25 05:27:44;;;;;;;4.57;1.67;;;21.90;96.40;;;;;;5108896;27;20572;-73
2022/07/25 05:30:11;;;;;;;2.50;1.52;;;21.90;96.30;;;;;;5126221;27;20043;-73
2022/07/25 05:32:38;;;;;;;2.17;1.40;;;22.00;96.50;;;;;;5126334;27;20067;-73
2022/07/25 05:35:06;;;;;;;3.25;1.75;;;22.10;96.50;;;;;;5127745;27;20043;-73
2022/07/25 05:37:33;;;;;;;2.53;1.50;;;22.10;96.50;;;;;;5126917;27;20378;-73
2022/07/25 05:39:59;;;;;;;3.10;1.83;;;22.10;96.50;;;;;;5124633;27;20088;-73
2022/07/25 05:42:25;;;;;;;2.85;1.42;;;22.20;96.50;;;;;;5125739;27;20574;-73
2022/07/25 05:44:51;;;;;;;3.88;1.60;;;22.10;96.50;;;;;;5126694;27;22131;-73
2022/07/25 05:47:17;;;;;;;2.80;1.58;;;22.10;96.60;;;;;;5124703;27;20556;-73
2022/07/25 05:49:42;;;;;;;3.42;1.40;;;22.00;96.60;;;;;;5125726;27;20035;-73
2022/07/25 05:52:08;;;;;;;2.83;1.70;;;22.00;96.70;;;;;;5125866;27;20518;-73
2022/07/25 05:54:34;;;;;;;2.53;1.40;;;22.00;96.80;;;;;;5126421;27;20049;-73
2022/07/25 05:57:00;;;;;;;2.35;1.33;;;21.90;96.90;;;;;;5123845;27;20050;-73
2022/07/25 05:59:26;;;;;;;3.83;1.92;;;21.90;97.10;;;;;;5124273;27;20043;-73
2022/07/25 06:01:52;;;;;;;2.13;1.40;;;21.90;97.20;;;;;;5124693;27;20040;-73
2022/07/25 06:04:18;;;;;;;3.08;1.83;;;21.80;97.30;;;;;;5124323;27;20118;-74
2022/07/25 06:06:49;;;;;;;8.90;2.55;;;21.80;97.40;;;;;;5124982;27;20633;-73
2022/07/25 06:09:20;;;;;;;6.90;1.75;;;21.90;97.50;;;;;;5124638;27;20055;-73
2022/07/25 06:11:46;;;;;;;3.70;1.85;;;21.80;97.60;;;;;;5125544;27;20108;-73
2022/07/25 06:14:12;;;;;;;2.58;1.65;;;21.80;97.70;;;;;;5124912;27;20051;-73
2022/07/25 06:16:38;;;;;;;3.38;1.73;;;21.80;97.70;;;;;;5124885;27;20043;-73
2022/07/25 06:19:04;;;;;;;3.45;1.92;;;21.90;97.80;;;;;;5124293;27;20500;-73
2022/07/25 06:21:30;;;;;;;4.68;1.98;;;21.80;97.80;;;;;;5125969;27;20119;-73
2022/07/25 06:23:55;;;;;;;2.90;1.48;;;21.90;97.80;;;;;;5125791;27;20081;-73
2022/07/25 06:26:23;;;;;;;4.30;2.10;;;21.90;97.90;;;;;;5126283;27;20834;-73
2022/07/25 06:28:49;;;;;;;3.30;1.70;;;21.90;97.90;;;;;;5124764;27;20047;-74
2022/07/25 06:31:15;;;;;;;2.85;1.98;;;21.90;97.90;;;;;;5124129;27;20088;-74
2022/07/25 06:33:41;;;;;;;3.00;2.15;;;21.90;98.00;;;;;;5125899;27;20521;-74
2022/07/25 06:36:07;;;;;;;3.03;2.05;;;21.90;98.10;;;;;;5125026;27;20151;-74
2022/07/25 06:38:33;;;;;;;5.93;1.70;;;21.90;98.10;;;;;;5126635;27;20048;-74
2022/07/25 06:40:59;;;;;;;3.03;1.65;;;22.00;98.20;;;;;;5125055;27;20047;-74
2022/07/25 06:43:25;;;;;;;3.33;1.40;;;21.90;98.20;;;;;;5124153;27;20043;-74
2022/07/25 06:45:50;;;;;;;2.70;2.03;;;21.90;98.20;;;;;;5124290;27;20191;-74
2022/07/25 06:48:17;;;;;;;4.57;1.83;;;21.90;98.30;;;;;;5122167;27;20600;-74
2022/07/25 06:50:44;;;;;;;3.08;1.92;;;21.90;98.30;;;;;;5124298;27;20043;-74
2022/07/25 06:53:10;;;;;;;2.35;1.45;;;21.90;98.30;;;;;;5124411;27;20043;-74
2022/07/25 06:55:35;;;;;;;7.53;1.60;;;22.00;98.50;;;;;;5126720;27;20489;-74
2022/07/25 06:58:01;;;;;;;4.72;1.73;;;21.90;98.50;;;;;;5121666;27;21846;-74
2022/07/25 07:00:27;;;;;;;3.08;1.60;;;22.00;98.60;;;;;;5108167;27;20038;-74
2022/07/25 07:03:00;;;;;;;2.53;1.40;;;22.00;98.60;;;;;;5126279;27;20051;-74
2022/07/25 07:05:31;;;;;;;4.10;1.98;;;22.00;98.60;;;;;;5121978;27;20054;-74
2022/07/25 07:07:57;;;;;;;3.15;1.60;;;22.00;98.60;;;;;;5108297;27;20039;-74
2022/07/25 07:10:23;;;;;;;3.15;1.60;;;22.00;98.70;;;;;;5123440;27;20599;-74
2022/07/25 07:12:50;;;;;;;4.25;1.42;;;22.00;98.70;;;;;;5125205;27;20458;-74
2022/07/25 07:15:16;;;;;;;5.80;1.70;;;22.00;98.70;;;;;;5124240;27;20142;-75
2022/07/25 07:17:42;;;;;;;3.33;1.70;;;22.10;98.70;;;;;;5124736;27;20825;-74
2022/07/25 07:20:09;;;;;;;3.17;1.48;;;22.10;98.80;;;;;;5123794;27;20051;-74
2022/07/25 07:22:48;;;;;;;4.82;1.67;;;22.10;98.80;;;;;;5122131;27;20124;-74
2022/07/25 07:25:15;;;;;;;5.07;1.70;;;22.10;98.80;;;;;;5128652;27;20506;-74
2022/07/25 07:27:43;;;;;;;3.38;1.40;;;22.10;98.90;;;;;;5126209;27;20617;-74
2022/07/25 07:30:09;;;;;;;3.33;1.30;;;22.20;98.90;;;;;;5128573;27;20875;-74
2022/07/25 07:32:35;;;;;;;2.40;1.50;;;22.10;98.80;;;;;;5126594;27;20040;-74
2022/07/25 07:35:02;;;;;;;2.60;1.20;;;22.20;98.90;;;;;;5127312;27;20991;-74
2022/07/25 07:37:28;;;;;;;8.38;2.85;;;22.20;98.90;;;;;;5128295;27;20075;-74
2022/07/25 07:39:53;;;;;;;5.65;2.00;;;22.20;98.90;;;;;;5128266;27;20039;-74
2022/07/25 07:42:19;;;;;;;3.50;1.70;;;22.20;98.90;;;;;;5128668;27;20103;-74
2022/07/25 07:44:45;;;;;;;2.80;1.67;;;22.30;99.10;;;;;;5127200;27;20048;-74
2022/07/25 07:47:10;;;;;;;2.78;1.42;;;22.30;98.90;;;;;;5127579;27;20053;-74
2022/07/25 07:49:36;;;;;;;4.05;1.67;;;22.30;98.90;;;;;;5126632;27;20040;-74
2022/07/25 07:52:02;;;;;;;3.42;1.55;;;22.30;98.80;;;;;;5110886;27;20050;-74
2022/07/25 07:57:12;;;;;;;3.60;1.52;;;22.60;98.70;;;;;;5128320;27;20043;-74
2022/07/25 07:59:38;;;;;;;6.15;2.08;;;22.70;98.60;;;;;;5126238;27;20108;-74
2022/07/25 08:02:04;;;;;;;2.47;1.20;;;22.80;98.50;;;;;;5127734;27;20039;-74
2022/07/25 08:04:30;;;;;;;3.65;1.35;;;23.00;98.40;;;;;;5126281;27;20527;-74
2022/07/25 08:06:55;;;;;;;1.88;1.30;;;23.20;98.40;;;;;;5127888;27;20046;-74
2022/07/25 08:09:24;;;;;;;1.65;1.27;;;23.30;98.20;;;;;;5126783;27;20044;-74
2022/07/25 08:11:51;;;;;;;3.05;1.52;;;23.30;97.90;;;;;;5127170;27;20513;-74
2022/07/25 08:14:16;;;;;;;2.67;1.88;;;23.20;97.70;;;;;;5127889;27;20055;-74
2022/07/25 08:16:42;;;;;;;2.90;1.50;;;23.20;97.70;;;;;;5127490;27;20078;-74
2022/07/25 08:19:08;;;;;;;2.78;1.77;;;23.10;97.60;;;;;;5126213;27;20081;-74
2022/07/25 08:21:33;;;;;;;3.72;1.67;;;23.00;97.50;;;;;;5128754;27;20110;-74
2022/07/25 08:23:59;;;;;;;2.80;1.40;;;23.00;97.50;;;;;;5127358;27;20109;-74
2022/07/25 08:26:26;;;;;;;3.40;1.80;;;23.10;97.50;;;;;;5126027;27;20035;-81
2022/07/25 08:28:52;;;;;;;2.08;1.20;;;23.10;97.60;;;;;;5125482;27;20069;-74
2022/07/25 08:31:18;;;;;;;1.50;1.20;;;23.30;97.90;;;;;;5126752;27;20437;-74
2022/07/25 08:33:44;;;;;;;2.20;1.50;;;23.50;97.50;;;;;;5125217;27;20048;-74
2022/07/25 08:36:10;;;;;;;2.15;1.63;;;23.50;97.20;;;;;;5125011;27;20043;-74
2022/07/25 08:38:36;;;;;;;3.10;2.00;;;23.60;97.10;;;;;;5127430;27;20150;-74
2022/07/25 08:41:02;;;;;;;2.53;1.20;;;23.60;97.00;;;;;;5125961;27;20598;-74
2022/07/25 08:43:31;;;;;;;6.10;1.75;;;23.80;96.90;;;;;;5126407;27;20134;-74
2022/07/25 08:45:59;;;;;;;2.10;1.42;;;23.90;96.90;;;;;;5127678;27;20035;-74
2022/07/25 08:48:26;;;;;;;3.85;1.63;;;24.10;96.80;;;;;;5125837;27;20108;-74
2022/07/25 08:50:53;;;;;;;4.32;1.85;;;24.30;96.70;;;;;;5128100;27;20050;-74
2022/07/25 08:53:20;;;;;;;3.42;1.98;;;24.40;96.60;;;;;;5126712;27;20425;-74
2022/07/25 08:55:46;;;;;;;2.42;1.48;;;24.50;96.40;;;;;;5127469;27;20040;-74
2022/07/25 08:58:15;;;;;;;1.58;1.10;;;24.70;96.30;;;;;;5126955;27;20541;-73
2022/07/25 09:00:42;;;;;;;4.55;1.48;;;24.90;96.10;;;;;;5127824;27;20097;-74
2022/07/25 09:03:07;;;;;;;1.70;1.10;;;24.90;96.10;;;;;;5126875;27;20584;-74
2022/07/25 09:05:34;;;;;;;2.30;1.40;;;25.10;96.00;;;;;;5125749;27;20036;-74
2022/07/25 09:08:12;;;;;;;5.85;1.60;;;25.10;96.10;;;;;;5127938;27;20105;-74
2022/07/25 09:10:40;;;;;;;2.03;1.35;;;25.20;96.00;;;;;;5125347;27;20048;-73
2022/07/25 09:13:12;;;;;;;1.70;1.20;;;25.10;96.00;;;;;;5126560;27;20039;-74
2022/07/25 09:15:41;;;;;;;1.88;1.52;;;25.10;96.00;;;;;;5125796;27;20039;-74
2022/07/25 09:18:12;;;;;;;1.58;1.10;;;25.20;96.10;;;;;;5128307;27;20039;-73
2022/07/25 09:20:45;;;;;;;2.30;1.20;;;25.20;96.10;;;;;;5125670;27;20039;-74
2022/07/25 09:23:25;;;;;;;5.18;1.50;;;25.20;96.00;;;;;;5127297;27;20055;-74
2022/07/25 09:25:51;;;;;;;3.88;1.30;;;25.20;96.00;;;;;;5126251;27;20043;-73
2022/07/25 09:28:18;;;;;;;4.55;1.52;;;25.20;96.00;;;;;;5126209;27;20169;-74
2022/07/25 09:30:59;;;;;;;4.43;2.03;;;25.20;95.80;;;;;;5123750;27;20042;-74
2022/07/25 09:33:27;;;;;;;2.00;1.27;;;25.10;95.80;;;;;;5126296;27;20503;-74
2022/07/25 09:35:54;;;;;;;4.15;1.40;;;25.10;95.90;;;;;;5127354;27;20513;-74
2022/07/25 09:38:23;;;;;;;2.08;1.40;;;25.00;95.90;;;;;;5126289;27;20047;-74
2022/07/25 09:40:54;;;;;;;3.38;1.40;;;24.90;96.00;;;;;;5123577;27;20631;-74
2022/07/25 09:43:19;;;;;;;2.85;1.02;;;24.80;96.10;;;;;;5124676;27;20406;-73
2022/07/25 09:45:49;;;;;;;2.03;1.25;;;24.80;96.20;;;;;;5127178;27;20043;-73
2022/07/25 09:48:21;;;;;;;3.65;1.10;;;24.70;96.20;;;;;;5124204;27;20079;-74
2022/07/25 09:50:47;;;;;;;;;;;24.60;96.20;;;;;;5126761;27;20078;-73
2022/07/25 09:53:13;;;;;;;1.50;1.20;;;24.50;96.30;;;;;;5107570;27;19930;-76
2022/07/25 09:55:40;;;;;;;2.00;1.42;;;24.50;96.40;;;;;;5124295;27;20039;-75
2022/07/25 09:58:05;;;;;;;2.40;1.40;;;24.60;96.60;;;;;;5126503;27;20043;-76
2022/07/25 10:00:31;;;;;;;1.67;1.02;;;24.80;96.70;;;;;;5126280;27;20039;-76
2022/07/25 10:03:09;;;;;;;2.38;1.58;;;24.90;96.70;;;;;;5126242;27;20043;-76
2022/07/25 10:06:00;;;;;;;3.28;1.30;;;25.10;96.60;;;;;;5126523;27;20035;-76
2022/07/25 10:08:40;;;;;;;2.35;1.27;;;25.30;96.50;;;;;;5080243;28;20471;-75
2022/07/25 10:11:21;;;;;;;6.67;1.40;;;25.40;96.30;;;;;;5082302;28;20048;-75
2022/07/25 10:13:47;;;;;;;2.20;1.23;;;25.40;96.20;;;;;;5082338;28;20518;-75
2022/07/25 10:16:18;;;;;;;3.22;1.88;;;25.30;96.20;;;;;;5082450;28;20595;-75
2022/07/25 10:18:51;;;;;;;;;;;25.30;96.10;;;;;;5083328;28;20135;-75
2022/07/25 10:21:18;;;;;;;2.33;1.10;;;25.10;96.10;;;;;;5065279;28;20496;-75
2022/07/25 10:23:45;;;;;;;3.78;1.40;;;24.90;96.10;;;;;;5082430;28;20044;-74
2022/07/25 10:26:15;;;;;;;3.50;1.40;;;24.90;96.20;;;;;;5063242;28;20057;-74
2022/07/25 10:28:48;;;;;;;3.58;1.85;;;24.90;96.30;;;;;;5083050;28;20132;-75
2022/07/25 10:31:20;;;;;;;1.90;1.25;;;25.10;96.20;;;;;;5081976;28;20621;-75
2022/07/25 10:33:54;;;;;;;2.70;1.20;;;25.20;96.00;;;;;;5082674;28;20025;-75
2022/07/25 10:36:21;;;;;;;4.03;1.60;;;25.40;96.00;;;;;;5078622;28;20048;-75
2022/07/25 10:38:50;;;;;;;6.30;1.90;;;25.50;95.70;;;;;;5081662;28;20101;-75
2022/07/25 10:41:16;;;;;;;2.63;1.52;;;25.60;95.70;;;;;;5082409;28;20044;-75
2022/07/25 10:43:45;;;;;;;3.53;1.60;;;25.60;95.70;;;;;;5082875;28;20610;-75
2022/07/25 10:46:14;;;;;;;1.77;1.50;;;25.60;95.50;;;;;;5113821;27;20067;-74
2022/07/25 10:48:40;;;;;;;7.88;1.48;;;25.40;95.40;;;;;;5082902;28;20055;-75
2022/07/25 10:51:13;;;;;;;3.08;1.30;;;25.20;95.30;;;;;;5080011;28;20048;-75
2022/07/25 10:53:43;;;;;;;5.90;1.80;;;25.10;95.20;;;;;;5081930;28;20043;-75
2022/07/25 10:56:12;;;;;;;3.78;1.70;;;25.00;95.20;;;;;;5064841;28;20850;-75
2022/07/25 10:58:49;;;;;;;2.00;1.25;;;25.10;95.20;;;;;;5081250;28;20093;-75
2022/07/25 11:01:28;;;;;;;3.90;1.60;;;25.10;95.10;;;;;;5080399;28;20066;-75
2022/07/25 11:03:59;;;;;;;2.88;1.30;;;25.20;95.10;;;;;;5083567;28;20040;-75
2022/07/25 11:06:39;;;;;;;3.10;1.85;;;25.20;95.00;;;;;;5114395;27;20126;-75
2022/07/25 11:09:25;;;;;;;4.35;1.65;;;25.40;94.70;;;;;;5063253;28;20070;-75
2022/07/25 11:11:56;;;;;;;3.63;1.90;;;25.50;94.70;;;;;;5081687;28;20124;-75
2022/07/25 11:14:40;;;;;;;3.58;1.45;;;24.70;94.40;;;;;;5114277;27;20119;-75
2022/07/25 11:17:13;;;;;;;6.70;1.65;;;25.60;94.40;;;;;;5082002;28;20071;-75
2022/07/25 11:19:40;;;;;;;3.20;2.40;;;25.60;94.30;;;;;;5070244;28;20036;-75
2022/07/25 11:22:07;;;;;;;3.47;1.20;;;25.70;94.20;;;;;;5067537;28;20120;-74
2022/07/25 11:24:36;;;;;;;4.05;1.50;;;25.90;93.90;;;;;;5067445;28;20298;-75
2022/07/25 11:27:02;;;;;;;4.30;2.00;;;26.00;93.30;;;;;;5065988;28;20041;-75
2022/07/25 11:29:28;;;;;;;1.85;1.40;;;26.00;93.10;;;;;;5066347;28;20127;-75
2022/07/25 11:32:03;;;;;;;4.20;2.00;;;26.10;93.00;;;;;;5066511;28;20037;-74
2022/07/25 11:34:32;;;;;;;4.82;1.60;;;26.10;92.90;;;;;;5066204;28;20041;-75
2022/07/25 11:37:00;;;;;;;3.20;1.85;;;26.20;92.80;;;;;;5067103;28;20067;-74
2022/07/25 11:39:27;;;;;;;4.80;2.53;;;26.30;92.70;;;;;;5066585;28;20045;-75
2022/07/25 11:42:08;;;;;;;3.20;1.80;;;26.40;92.60;;;;;;5067862;28;20556;-75
2022/07/25 11:44:40;;;;;;;2.45;1.50;;;26.40;92.10;;;;;;5067895;28;20036;-75
2022/07/25 11:47:06;;;;;;;;;;;26.30;92.20;;;;;;5068031;28;20852;-72
2022/07/25 11:49:47;;;;;;;2.78;1.50;;;26.30;91.70;;;;;;5066891;28;19921;-72
2022/07/25 11:52:28;;;;;;;4.35;2.15;;;26.20;91.70;;;;;;5067769;28;20041;-72
2022/07/25 11:54:58;;;;;;;;;;;26.20;91.80;;;;;;5067315;28;20041;-73
2022/07/25 11:57:26;;;;;;;2.38;1.88;;;26.30;91.70;;;;;;5065877;28;19959;-72
2022/07/25 11:59:53;;;;;;;2.72;1.70;;;26.30;91.70;;;;;;5064388;28;20207;-73
2022/07/25 12:02:27;;;;;;;2.28;1.73;;;26.40;91.60;;;;;;5061744;28;20088;-73
2022/07/25 12:04:57;;;;;;;3.15;1.42;;;26.50;91.50;;;;;;5063409;28;20120;-73
2022/07/25 12:07:43;;;;;;;4.35;1.95;;;26.50;90.90;;;;;;5061748;28;20132;-73
2022/07/25 12:10:32;;;;;;;3.40;1.35;;;26.60;90.90;;;;;;5098540;27;20036;-72
2022/07/25 12:13:03;;;;;;;2.90;1.50;;;26.60;90.80;;;;;;5067610;28;20175;-72
2022/07/25 12:15:37;;;;;;;2.80;1.73;;;26.60;90.90;;;;;;5065405;28;20498;-72
2022/07/25 12:18:04;;;;;;;2.88;1.40;;;26.60;90.80;;;;;;5066015;28;20076;-72
2022/07/25 12:20:41;;;;;;;5.32;1.70;;;26.60;90.80;;;;;;5064434;28;20048;-72
2022/07/25 12:23:09;;;;;;;3.70;1.83;;;26.60;90.70;;;;;;5065906;28;20124;-73
2022/07/25 12:25:37;;;;;;;4.25;1.48;;;26.70;90.60;;;;;;5099265;27;20041;-72
2022/07/25 12:28:03;;;;;;;2.85;1.55;;;26.60;90.50;;;;;;5098920;27;20477;-73
2022/07/25 12:30:30;;;;;;;3.20;1.92;;;26.60;90.60;;;;;;5064927;28;20036;-73
2022/07/25 12:32:57;;;;;;;3.45;1.38;;;26.60;90.50;;;;;;5065474;28;20033;-72
2022/07/25 12:35:24;;;;;;;4.22;1.48;;;26.80;90.70;;;;;;5067695;28;20068;-73
2022/07/25 12:37:50;;;;;;;1.73;1.20;;;26.90;90.70;;;;;;5064731;28;20438;-72
2022/07/25 12:40:17;;;;;;;2.40;1.40;;;26.90;90.60;;;;;;5066639;28;20040;-72
2022/07/25 12:42:43;;;;;;;4.25;1.77;;;26.90;90.40;;;;;;5066017;28;20041;-72
2022/07/25 12:45:10;;;;;;;3.50;1.63;;;26.90;90.30;;;;;;5064806;28;20514;-72
2022/07/25 12:47:37;;;;;;;3.38;1.92;;;26.80;90.10;;;;;;5065508;28;20101;-72
2022/07/25 12:50:03;;;;;;;2.10;1.50;;;26.70;90.10;;;;;;5065609;28;20047;-72
2022/07/25 12:52:29;;;;;;;3.67;1.60;;;26.70;90.10;;;;;;5066201;28;20041;-73